sensor_id;sensor_type;location;lat;lon;timestamp;P1;durP1;ratioP1;P2;durP2;ratioP2
16099;SDS011;8154;50.830;12.082;2023-05-10T00:01:39;1.15;;;1.10;;
16099;SDS011;8154;50.830;12.082;2023-05-10T00:04:06;1.00;;;1.00;;
16099;SDS011;8154;50.830;12.082;2023-05-10T00:06:32;0.95;;;0.95;;
16099;SDS011;8154;50.830;12.082;2023-05-10T00:09:00;1.08;;;1.08;;
16099;SDS011;8154;50.830;12.082;2023-05-10T00:11:26;1.00;;;1.00;;
16099;SDS011;8154;50.830;12.082;2023-05-10T00:13:52;1.10;;;1.10;;
16099;SDS011;8154;50.830;12.082;2023-05-10T00:16:18;1.10;;;1.10;;
16099;SDS011;8154;50.830;12.082;2023-05-10T00:18:44;1.17;;;1.17;;
16099;SDS011;8154;50.830;12.082;2023-05-10T00:21:11;1.10;;;1.10;;
16099;SDS011;8154;50.830;12.082;2023-05-10T00:23:37;1.00;;;1.00;;
16099;SDS011;8154;50.830;12.082;2023-05-10T00:26:04;1.10;;;1.10;;
16099;SDS011;8154;50.830;12.082;2023-05-10T00:28:31;0.90;;;0.90;;
16099;SDS011;8154;50.830;12.082;2023-05-10T00:30:58;0.95;;;0.95;;
16099;SDS011;8154;50.830;12.082;2023-05-10T00:33:24;0.90;;;0.90;;
16099;SDS011;8154;50.830;12.082;2023-05-10T00:35:51;1.00;;;1.00;;
16099;SDS011;8154;50.830;12.082;2023-05-10T00:38:17;1.10;;;1.10;;
16099;SDS011;8154;50.830;12.082;2023-05-10T00:40:44;0.95;;;0.95;;
16099;SDS011;8154;50.830;12.082;2023-05-10T00:43:10;1.10;;;1.10;;
16099;SDS011;8154;50.830;12.082;2023-05-10T00:45:36;1.10;;;1.00;;
16099;SDS011;8154;50.830;12.082;2023-05-10T00:48:03;0.95;;;0.95;;
16099;SDS011;8154;50.830;12.082;2023-05-10T00:50:30;1.10;;;1.10;;
16099;SDS011;8154;50.830;12.082;2023-05-10T00:52:59;1.00;;;1.00;;
16099;SDS011;8154;50.830;12.082;2023-05-10T00:55:26;0.95;;;0.95;;
16099;SDS011;8154;50.830;12.082;2023-05-10T00:57:53;1.13;;;1.13;;
16099;SDS011;8154;50.830;12.082;2023-05-10T01:00:19;1.00;;;1.00;;
16099;SDS011;8154;50.830;12.082;2023-05-10T01:02:46;1.00;;;1.00;;
16099;SDS011;8154;50.830;12.082;2023-05-10T01:05:13;1.02;;;1.02;;
16099;SDS011;8154;50.830;12.082;2023-05-10T01:07:39;1.00;;;1.00;;
16099;SDS011;8154;50.830;12.082;2023-05-10T01:10:06;1.00;;;1.00;;
16099;SDS011;8154;50.830;12.082;2023-05-10T01:12:34;1.00;;;1.00;;
16099;SDS011;8154;50.830;12.082;2023-05-10T01:15:02;0.90;;;0.90;;
16099;SDS011;8154;50.830;12.082;2023-05-10T01:17:30;1.00;;;1.00;;
16099;SDS011;8154;50.830;12.082;2023-05-10T01:19:56;1.00;;;1.00;;
16099;SDS011;8154;50.830;12.082;2023-05-10T01:25:44;1.00;;;1.00;;
16099;SDS011;8154;50.830;12.082;2023-05-10T01:28:54;1.10;;;1.10;;
16099;SDS011;8154;50.830;12.082;2023-05-10T01:31:53;0.90;;;0.90;;
16099;SDS011;8154;50.830;12.082;2023-05-10T01:35:26;1.00;;;1.00;;
16099;SDS011;8154;50.830;12.082;2023-05-10T01:43:04;1.10;;;1.10;;
16099;SDS011;8154;50.830;12.082;2023-05-10T01:48:11;1.00;;;1.00;;
16099;SDS011;8154;50.830;12.082;2023-05-10T01:50:41;0.82;;;0.82;;
16099;SDS011;8154;50.830;12.082;2023-05-10T01:53:11;0.90;;;0.90;;
16099;SDS011;8154;50.830;12.082;2023-05-10T01:55:45;1.10;;;1.10;;
16099;SDS011;8154;50.830;12.082;2023-05-10T01:58:22;1.00;;;1.00;;
16099;SDS011;8154;50.830;12.082;2023-05-10T02:00:53;0.93;;;0.93;;
16099;SDS011;8154;50.830;12.082;2023-05-10T02:03:22;1.00;;;1.00;;
16099;SDS011;8154;50.830;12.082;2023-05-10T02:05:49;1.10;;;1.10;;
16099;SDS011;8154;50.830;12.082;2023-05-10T02:08:18;0.82;;;0.82;;
16099;SDS011;8154;50.830;12.082;2023-05-10T02:10:46;0.90;;;0.90;;
16099;SDS011;8154;50.830;12.082;2023-05-10T02:13:14;0.90;;;0.90;;
16099;SDS011;8154;50.830;12.082;2023-05-10T02:15:42;1.10;;;1.10;;
16099;SDS011;8154;50.830;12.082;2023-05-10T02:18:09;1.00;;;1.00;;
16099;SDS011;8154;50.830;12.082;2023-05-10T02:20:37;1.00;;;1.00;;
16099;SDS011;8154;50.830;12.082;2023-05-10T02:23:04;0.95;;;0.95;;
16099;SDS011;8154;50.830;12.082;2023-05-10T02:25:32;1.00;;;1.00;;
16099;SDS011;8154;50.830;12.082;2023-05-10T02:27:59;1.00;;;1.00;;
16099;SDS011;8154;50.830;12.082;2023-05-10T02:30:29;1.08;;;1.08;;
16099;SDS011;8154;50.830;12.082;2023-05-10T02:32:57;0.93;;;0.93;;
16099;SDS011;8154;50.830;12.082;2023-05-10T06:37:39;1.10;;;1.10;;
16099;SDS011;8154;50.830;12.082;2023-05-10T06:40:06;1.10;;;1.10;;
16099;SDS011;8154;50.830;12.082;2023-05-10T06:42:33;1.10;;;1.10;;
16099;SDS011;8154;50.830;12.082;2023-05-10T06:45:00;1.30;;;1.20;;
16099;SDS011;8154;50.830;12.082;2023-05-10T06:47:27;1.25;;;1.15;;
16099;SDS011;8154;50.830;12.082;2023-05-10T06:49:56;1.17;;;1.17;;
16099;SDS011;8154;50.830;12.082;2023-05-10T06:52:22;1.20;;;1.20;;
16099;SDS011;8154;50.830;12.082;2023-05-10T06:54:48;1.15;;;1.10;;
16099;SDS011;8154;50.830;12.082;2023-05-10T06:57:16;1.10;;;1.10;;
16099;SDS011;8154;50.830;12.082;2023-05-10T06:59:43;1.27;;;1.17;;
16099;SDS011;8154;50.830;12.082;2023-05-10T07:02:09;1.10;;;1.10;;
16099;SDS011;8154;50.830;12.082;2023-05-10T07:04:35;1.40;;;1.30;;
16099;SDS011;8154;50.830;12.082;2023-05-10T07:07:02;1.20;;;1.20;;
16099;SDS011;8154;50.830;12.082;2023-05-10T07:09:29;1.10;;;1.10;;
16099;SDS011;8154;50.830;12.082;2023-05-10T07:11:55;1.33;;;1.23;;
16099;SDS011;8154;50.830;12.082;2023-05-10T07:14:24;1.20;;;1.20;;
16099;SDS011;8154;50.830;12.082;2023-05-10T07:16:51;1.10;;;1.10;;
16099;SDS011;8154;50.830;12.082;2023-05-10T07:19:17;1.08;;;1.08;;
16099;SDS011;8154;50.830;12.082;2023-05-10T07:21:44;1.25;;;1.25;;
16099;SDS011;8154;50.830;12.082;2023-05-10T07:24:10;1.20;;;1.20;;
16099;SDS011;8154;50.830;12.082;2023-05-10T07:26:37;1.38;;;1.30;;
16099;SDS011;8154;50.830;12.082;2023-05-10T07:29:04;1.30;;;1.20;;
16099;SDS011;8154;50.830;12.082;2023-05-10T07:31:29;1.40;;;1.30;;
16099;SDS011;8154;50.830;12.082;2023-05-10T07:33:57;1.33;;;1.30;;
16099;SDS011;8154;50.830;12.082;2023-05-10T11:39:14;1.38;;;1.30;;
16099;SDS011;8154;50.830;12.082;2023-05-10T11:41:40;1.10;;;1.10;;
16099;SDS011;8154;50.830;12.082;2023-05-10T11:44:08;1.23;;;1.20;;
16099;SDS011;8154;50.830;12.082;2023-05-10T11:46:35;1.38;;;1.27;;
16099;SDS011;8154;50.830;12.082;2023-05-10T11:49:02;1.40;;;1.35;;
16099;SDS011;8154;50.830;12.082;2023-05-10T11:51:33;1.17;;;1.17;;
16099;SDS011;8154;50.830;12.082;2023-05-10T11:54:04;1.20;;;1.20;;
16099;SDS011;8154;50.830;12.082;2023-05-10T11:56:36;1.25;;;1.15;;
16099;SDS011;8154;50.830;12.082;2023-05-10T11:59:04;1.10;;;1.10;;
16099;SDS011;8154;50.830;12.082;2023-05-10T12:01:31;1.30;;;1.30;;
16099;SDS011;8154;50.830;12.082;2023-05-10T12:03:57;1.25;;;1.20;;
16099;SDS011;8154;50.830;12.082;2023-05-10T12:06:27;1.10;;;1.10;;
16099;SDS011;8154;50.830;12.082;2023-05-10T12:08:57;1.20;;;1.20;;
16099;SDS011;8154;50.830;12.082;2023-05-10T12:11:27;1.20;;;1.20;;
16099;SDS011;8154;50.830;12.082;2023-05-10T12:13:55;1.40;;;1.30;;
16099;SDS011;8154;50.830;12.082;2023-05-10T12:16:22;1.20;;;1.20;;
16099;SDS011;8154;50.830;12.082;2023-05-10T12:18:51;1.17;;;1.17;;
16099;SDS011;8154;50.830;12.082;2023-05-10T12:21:19;1.10;;;1.10;;
16099;SDS011;8154;50.830;12.082;2023-05-10T12:23:51;1.02;;;1.02;;
16099;SDS011;8154;50.830;12.082;2023-05-10T12:26:22;1.23;;;1.17;;
16099;SDS011;8154;50.830;12.082;2023-05-10T12:28:50;1.50;;;1.40;;
16099;SDS011;8154;50.830;12.082;2023-05-10T12:31:16;1.17;;;1.17;;
16099;SDS011;8154;50.830;12.082;2023-05-10T12:33:44;1.10;;;1.10;;
16099;SDS011;8154;50.830;12.082;2023-05-10T12:36:12;1.20;;;1.20;;
16099;SDS011;8154;50.830;12.082;2023-05-10T13:39:31;1.10;;;1.10;;
16099;SDS011;8154;50.830;12.082;2023-05-10T13:41:59;1.10;;;1.10;;
16099;SDS011;8154;50.830;12.082;2023-05-10T13:44:26;1.25;;;1.20;;
16099;SDS011;8154;50.830;12.082;2023-05-10T13:46:52;1.10;;;1.10;;
16099;SDS011;8154;50.830;12.082;2023-05-10T13:49:18;1.20;;;1.20;;
16099;SDS011;8154;50.830;12.082;2023-05-10T13:51:44;1.10;;;1.10;;
16099;SDS011;8154;50.830;12.082;2023-05-10T13:54:10;0.98;;;0.98;;
16099;SDS011;8154;50.830;12.082;2023-05-10T13:56:37;1.20;;;1.20;;
16099;SDS011;8154;50.830;12.082;2023-05-10T13:59:05;1.10;;;1.10;;
16099;SDS011;8154;50.830;12.082;2023-05-10T14:01:49;1.23;;;1.20;;
16099;SDS011;8154;50.830;12.082;2023-05-10T14:04:33;1.40;;;1.30;;
16099;SDS011;8154;50.830;12.082;2023-05-10T14:07:02;1.10;;;1.10;;
16099;SDS011;8154;50.830;12.082;2023-05-10T14:09:30;1.05;;;1.05;;
16099;SDS011;8154;50.830;12.082;2023-05-10T14:11:57;1.17;;;1.17;;
16099;SDS011;8154;50.830;12.082;2023-05-10T14:14:23;1.00;;;1.00;;
16099;SDS011;8154;50.830;12.082;2023-05-10T14:16:49;1.40;;;1.30;;
16099;SDS011;8154;50.830;12.082;2023-05-10T14:19:15;1.40;;;1.30;;
16099;SDS011;8154;50.830;12.082;2023-05-10T14:21:41;1.20;;;1.20;;
16099;SDS011;8154;50.830;12.082;2023-05-10T14:24:07;1.05;;;1.05;;
16099;SDS011;8154;50.830;12.082;2023-05-10T14:26:33;1.10;;;1.10;;
16099;SDS011;8154;50.830;12.082;2023-05-10T14:29:00;1.08;;;1.08;;
16099;SDS011;8154;50.830;12.082;2023-05-10T14:31:26;1.10;;;1.10;;
16099;SDS011;8154;50.830;12.082;2023-05-10T14:34:10;1.30;;;1.20;;
16099;SDS011;8154;50.830;12.082;2023-05-10T14:36:36;1.20;;;1.20;;
16099;SDS011;8154;50.830;12.082;2023-05-10T17:40:24;2.97;;;1.90;;
16099;SDS011;8154;50.830;12.082;2023-05-10T17:42:50;3.67;;;2.25;;
16099;SDS011;8154;50.830;12.082;2023-05-10T17:45:16;2.92;;;1.75;;
16099;SDS011;8154;50.830;12.082;2023-05-10T17:47:44;2.13;;;1.90;;
16099;SDS011;8154;50.830;12.082;2023-05-10T17:50:10;3.53;;;1.90;;
16099;SDS011;8154;50.830;12.082;2023-05-10T17:52:37;2.83;;;1.80;;
16099;SDS011;8154;50.830;12.082;2023-05-10T17:55:24;4.95;;;1.85;;
16099;SDS011;8154;50.830;12.082;2023-05-10T17:57:51;3.42;;;1.92;;
16099;SDS011;8154;50.830;12.082;2023-05-10T18:00:38;6.50;;;1.90;;
16099;SDS011;8154;50.830;12.082;2023-05-10T18:03:05;5.25;;;1.77;;
16099;SDS011;8154;50.830;12.082;2023-05-10T18:05:34;3.05;;;1.80;;
16099;SDS011;8154;50.830;12.082;2023-05-10T18:08:03;2.13;;;1.60;;
16099;SDS011;8154;50.830;12.082;2023-05-10T18:10:30;2.03;;;1.50;;
16099;SDS011;8154;50.830;12.082;2023-05-10T18:12:56;1.95;;;1.80;;
16099;SDS011;8154;50.830;12.082;2023-05-10T18:15:28;3.42;;;1.90;;
16099;SDS011;8154;50.830;12.082;2023-05-10T18:17:55;4.72;;;2.00;;
16099;SDS011;8154;50.830;12.082;2023-05-10T18:20:21;3.92;;;1.95;;
16099;SDS011;8154;50.830;12.082;2023-05-10T18:22:47;6.43;;;2.35;;
16099;SDS011;8154;50.830;12.082;2023-05-10T18:25:13;3.80;;;2.00;;
16099;SDS011;8154;50.830;12.082;2023-05-10T18:27:40;4.63;;;2.10;;
16099;SDS011;8154;50.830;12.082;2023-05-10T18:30:06;4.38;;;2.00;;
16099;SDS011;8154;50.830;12.082;2023-05-10T18:32:34;3.65;;;1.90;;
16099;SDS011;8154;50.830;12.082;2023-05-10T18:35:02;4.18;;;2.17;;
16099;SDS011;8154;50.830;12.082;2023-05-10T18:37:30;2.33;;;1.90;;
16099;SDS011;8154;50.830;12.082;2023-05-10T19:07:46;2.22;;;1.90;;
16099;SDS011;8154;50.830;12.082;2023-05-10T19:31:39;2.17;;;1.90;;
16099;SDS011;8154;50.830;12.082;2023-05-10T20:07:56;5.00;;;2.40;;
16099;SDS011;8154;50.830;12.082;2023-05-10T20:41:04;3.83;;;2.10;;
16099;SDS011;8154;50.830;12.082;2023-05-10T20:43:31;2.83;;;2.00;;
16099;SDS011;8154;50.830;12.082;2023-05-10T20:45:57;3.00;;;2.05;;
16099;SDS011;8154;50.830;12.082;2023-05-10T20:48:30;2.97;;;2.10;;
16099;SDS011;8154;50.830;12.082;2023-05-10T20:51:00;2.30;;;2.10;;
16099;SDS011;8154;50.830;12.082;2023-05-10T20:53:27;2.60;;;2.20;;
16099;SDS011;8154;50.830;12.082;2023-05-10T20:55:53;2.42;;;2.03;;
16099;SDS011;8154;50.830;12.082;2023-05-10T20:58:19;3.85;;;2.10;;
16099;SDS011;8154;50.830;12.082;2023-05-10T21:00:45;3.30;;;1.90;;
16099;SDS011;8154;50.830;12.082;2023-05-10T21:03:12;3.63;;;2.00;;
16099;SDS011;8154;50.830;12.082;2023-05-10T21:05:38;4.20;;;2.10;;
16099;SDS011;8154;50.830;12.082;2023-05-10T21:08:05;3.03;;;2.05;;
16099;SDS011;8154;50.830;12.082;2023-05-10T21:10:31;2.25;;;1.98;;
16099;SDS011;8154;50.830;12.082;2023-05-10T21:12:57;4.88;;;1.90;;
16099;SDS011;8154;50.830;12.082;2023-05-10T21:15:24;2.63;;;2.00;;
16099;SDS011;8154;50.830;12.082;2023-05-10T21:17:50;3.28;;;1.95;;
16099;SDS011;8154;50.830;12.082;2023-05-10T21:20:19;3.67;;;2.00;;
16099;SDS011;8154;50.830;12.082;2023-05-10T21:22:46;3.80;;;1.98;;
16099;SDS011;8154;50.830;12.082;2023-05-10T21:25:13;6.00;;;2.10;;
16099;SDS011;8154;50.830;12.082;2023-05-10T21:27:40;6.53;;;2.33;;
16099;SDS011;8154;50.830;12.082;2023-05-10T21:30:06;3.63;;;2.15;;
16099;SDS011;8154;50.830;12.082;2023-05-10T21:32:33;4.70;;;1.98;;
16099;SDS011;8154;50.830;12.082;2023-05-10T21:35:00;6.90;;;2.30;;
16099;SDS011;8154;50.830;12.082;2023-05-10T21:37:26;6.78;;;2.40;;
16099;SDS011;8154;50.830;12.082;2023-05-10T21:39:53;7.97;;;2.15;;
16099;SDS011;8154;50.830;12.082;2023-05-10T21:42:19;3.22;;;2.20;;
16099;SDS011;8154;50.830;12.082;2023-05-10T21:44:45;5.57;;;2.20;;
16099;SDS011;8154;50.830;12.082;2023-05-10T21:47:12;4.20;;;2.10;;
16099;SDS011;8154;50.830;12.082;2023-05-10T21:49:39;2.95;;;2.10;;
16099;SDS011;8154;50.830;12.082;2023-05-10T21:52:05;10.25;;;6.45;;
16099;SDS011;8154;50.830;12.082;2023-05-10T21:54:31;14.88;;;8.25;;
16099;SDS011;8154;50.830;12.082;2023-05-10T21:56:57;11.00;;;5.90;;
16099;SDS011;8154;50.830;12.082;2023-05-10T21:59:24;7.28;;;4.38;;
16099;SDS011;8154;50.830;12.082;2023-05-10T22:01:50;9.80;;;4.22;;
16099;SDS011;8154;50.830;12.082;2023-05-10T22:04:17;8.30;;;3.75;;
16099;SDS011;8154;50.830;12.082;2023-05-10T22:06:43;7.65;;;3.40;;
16099;SDS011;8154;50.830;12.082;2023-05-10T22:09:11;6.70;;;3.38;;
16099;SDS011;8154;50.830;12.082;2023-05-10T22:11:38;6.93;;;3.35;;
16099;SDS011;8154;50.830;12.082;2023-05-10T22:14:04;6.03;;;3.33;;
16099;SDS011;8154;50.830;12.082;2023-05-10T22:16:31;4.80;;;3.13;;
16099;SDS011;8154;50.830;12.082;2023-05-10T22:18:57;6.05;;;3.15;;
16099;SDS011;8154;50.830;12.082;2023-05-10T22:21:23;7.43;;;2.97;;
16099;SDS011;8154;50.830;12.082;2023-05-10T22:23:51;5.13;;;3.10;;
16099;SDS011;8154;50.830;12.082;2023-05-10T22:26:19;3.05;;;2.75;;
16099;SDS011;8154;50.830;12.082;2023-05-10T22:28:47;4.78;;;2.92;;
16099;SDS011;8154;50.830;12.082;2023-05-10T22:31:14;4.53;;;2.60;;
16099;SDS011;8154;50.830;12.082;2023-05-10T22:33:41;4.47;;;2.97;;
16099;SDS011;8154;50.830;12.082;2023-05-10T22:36:08;5.13;;;3.00;;
16099;SDS011;8154;50.830;12.082;2023-05-10T22:38:35;4.53;;;2.78;;
